sensor_id;sensor_type;location;lat;lon;timestamp;pressure;altitude;pressure_sealevel;temperature;humidity
79461;BME280;68929;42.666;23.324;2023-04-01T00:01:18;93630.16;;;15.80;45.61
79461;BME280;68929;42.666;23.324;2023-04-01T00:03:44;93652.53;;;15.84;45.30
79461;BME280;68929;42.666;23.324;2023-04-01T00:06:12;93653.63;;;15.78;45.69
79461;BME280;68929;42.666;23.324;2023-04-01T00:08:38;93654.72;;;15.62;45.54
79461;BME280;68929;42.666;23.324;2023-04-01T00:11:04;93632.84;;;15.65;45.76
79461;BME280;68929;42.666;23.324;2023-04-01T00:13:29;93652.56;;;15.74;46.08
79461;BME280;68929;42.666;23.324;2023-04-01T00:15:55;93631.28;;;15.54;45.61
79461;BME280;68929;42.666;23.324;2023-04-01T00:18:21;93638.44;;;15.78;45.79
79461;BME280;68929;42.666;23.324;2023-04-01T00:20:48;93659.47;;;15.95;45.79
79461;BME280;68929;42.666;23.324;2023-04-01T00:23:14;93661.34;;;15.84;45.21
79461;BME280;68929;42.666;23.324;2023-04-01T00:25:40;93661.09;;;15.76;45.24
79461;BME280;68929;42.666;23.324;2023-04-01T00:28:06;93662.16;;;15.75;45.90
79461;BME280;68929;42.666;23.324;2023-04-01T00:30:31;93648.28;;;15.88;45.15
79461;BME280;68929;42.666;23.324;2023-04-01T00:32:57;93670.69;;;15.62;46.75
79461;BME280;68929;42.666;23.324;2023-04-01T00:35:22;93643.78;;;15.38;46.26
79461;BME280;68929;42.666;23.324;2023-04-01T00:37:48;93650.41;;;14.95;47.59
79461;BME280;68929;42.666;23.324;2023-04-01T00:40:27;93644.78;;;14.05;50.07
79461;BME280;68929;42.666;23.324;2023-04-01T00:42:53;93631.66;;;13.88;51.01
79461;BME280;68929;42.666;23.324;2023-04-01T00:45:39;93650.59;;;14.59;50.11
79461;BME280;68929;42.666;23.324;2023-04-01T00:48:20;93639.50;;;15.02;48.63
79461;BME280;68929;42.666;23.324;2023-04-01T00:53:28;93628.31;;;15.25;47.84
79461;BME280;68929;42.666;23.324;2023-04-01T00:56:04;93614.72;;;14.76;48.56
79461;BME280;68929;42.666;23.324;2023-04-01T00:58:35;93587.06;;;14.62;49.07
79461;BME280;68929;42.666;23.324;2023-04-01T01:01:03;93602.47;;;14.65;48.39
79461;BME280;68929;42.666;23.324;2023-04-01T01:03:28;93595.59;;;14.74;48.46
79461;BME280;68929;42.666;23.324;2023-04-01T01:06:19;93609.41;;;14.86;48.84
79461;BME280;68929;42.666;23.324;2023-04-01T01:20:24;93584.34;;;14.47;48.75
79461;BME280;68929;42.666;23.324;2023-04-01T01:32:10;93559.94;;;14.80;48.08
79461;BME280;68929;42.666;23.324;2023-04-01T01:34:41;93560.78;;;13.99;50.04
79461;BME280;68929;42.666;23.324;2023-04-01T01:37:16;93564.72;;;14.68;48.89
79461;BME280;68929;42.666;23.324;2023-04-01T01:39:45;93557.00;;;14.82;47.91
79461;BME280;68929;42.666;23.324;2023-04-01T01:42:14;93548.22;;;14.86;47.88
79461;BME280;68929;42.666;23.324;2023-04-01T01:44:43;93558.31;;;14.69;47.09
79461;BME280;68929;42.666;23.324;2023-04-01T01:47:11;93563.09;;;14.47;48.70
79461;BME280;68929;42.666;23.324;2023-04-01T01:49:38;93547.97;;;13.81;49.15
79461;BME280;68929;42.666;23.324;2023-04-01T01:52:04;93554.47;;;14.25;49.45
79461;BME280;68929;42.666;23.324;2023-04-01T01:54:29;93539.13;;;14.42;48.37
79461;BME280;68929;42.666;23.324;2023-04-01T01:57:07;93549.16;;;14.25;49.11
79461;BME280;68929;42.666;23.324;2023-04-01T01:59:37;93537.81;;;14.34;48.89
79461;BME280;68929;42.666;23.324;2023-04-01T02:02:05;93539.72;;;14.89;47.45
79461;BME280;68929;42.666;23.324;2023-04-01T02:04:38;93538.06;;;15.39;46.25
79461;BME280;68929;42.666;23.324;2023-04-01T02:07:12;93550.84;;;15.57;45.48
79461;BME280;68929;42.666;23.324;2023-04-01T02:09:41;93521.34;;;15.18;47.02
79461;BME280;68929;42.666;23.324;2023-04-01T02:12:08;93531.72;;;15.25;46.27
79461;BME280;68929;42.666;23.324;2023-04-01T02:14:55;93535.41;;;15.34;46.13
79461;BME280;68929;42.666;23.324;2023-04-01T02:17:27;93515.44;;;15.46;45.82
79461;BME280;68929;42.666;23.324;2023-04-01T02:20:09;93518.69;;;15.03;45.83
79461;BME280;68929;42.666;23.324;2023-04-01T02:22:40;93521.06;;;15.09;45.87
79461;BME280;68929;42.666;23.324;2023-04-01T02:25:15;93522.41;;;15.12;45.95
79461;BME280;68929;42.666;23.324;2023-04-01T02:27:44;93503.53;;;15.03;45.51
79461;BME280;68929;42.666;23.324;2023-04-01T02:30:11;93505.59;;;15.32;45.78
79461;BME280;68929;42.666;23.324;2023-04-01T02:32:38;93518.91;;;15.37;44.83
79461;BME280;68929;42.666;23.324;2023-04-01T02:35:08;93524.28;;;14.81;45.67
79461;BME280;68929;42.666;23.324;2023-04-01T02:37:36;93518.44;;;14.89;45.96
79461;BME280;68929;42.666;23.324;2023-04-01T02:40:03;93538.13;;;15.03;45.83
79461;BME280;68929;42.666;23.324;2023-04-01T02:42:29;93535.44;;;15.18;45.62
79461;BME280;68929;42.666;23.324;2023-04-01T02:44:54;93510.94;;;15.27;45.61
79461;BME280;68929;42.666;23.324;2023-04-01T02:47:19;93543.97;;;15.46;45.05
79461;BME280;68929;42.666;23.324;2023-04-01T02:49:45;93530.59;;;15.41;44.86
79461;BME280;68929;42.666;23.324;2023-04-01T02:52:10;93539.63;;;15.70;45.13
79461;BME280;68929;42.666;23.324;2023-04-01T02:54:36;93542.28;;;15.65;45.02
79461;BME280;68929;42.666;23.324;2023-04-01T02:57:01;93547.94;;;14.98;44.45
79461;BME280;68929;42.666;23.324;2023-04-01T02:59:27;93535.44;;;14.63;45.21
79461;BME280;68929;42.666;23.324;2023-04-01T03:01:52;93557.22;;;14.50;47.39
79461;BME280;68929;42.666;23.324;2023-04-01T03:04:17;93542.91;;;14.81;47.16
79461;BME280;68929;42.666;23.324;2023-04-01T03:06:43;93562.34;;;14.77;46.14
79461;BME280;68929;42.666;23.324;2023-04-01T03:09:08;93554.28;;;14.41;48.11
79461;BME280;68929;42.666;23.324;2023-04-01T03:11:34;93572.66;;;14.43;46.81
79461;BME280;68929;42.666;23.324;2023-04-01T03:13:59;93553.50;;;14.41;47.77
79461;BME280;68929;42.666;23.324;2023-04-01T03:16:24;93559.91;;;14.55;48.04
79461;BME280;68929;42.666;23.324;2023-04-01T03:18:50;93563.66;;;14.84;46.79
79461;BME280;68929;42.666;23.324;2023-04-01T03:21:20;93546.31;;;14.47;48.43
79461;BME280;68929;42.666;23.324;2023-04-01T03:23:45;93555.53;;;14.19;49.08
79461;BME280;68929;42.666;23.324;2023-04-01T03:26:11;93567.84;;;14.35;49.82
79461;BME280;68929;42.666;23.324;2023-04-01T03:28:37;93578.03;;;14.78;49.48
79461;BME280;68929;42.666;23.324;2023-04-01T03:31:05;93583.31;;;14.73;48.46
79461;BME280;68929;42.666;23.324;2023-04-01T03:33:31;93571.09;;;14.62;48.75
79461;BME280;68929;42.666;23.324;2023-04-01T03:35:57;93572.63;;;14.33;50.26
79461;BME280;68929;42.666;23.324;2023-04-01T03:38:22;93560.41;;;14.42;49.23
79461;BME280;68929;42.666;23.324;2023-04-01T03:40:48;93544.03;;;13.98;50.25
79461;BME280;68929;42.666;23.324;2023-04-01T03:43:13;93547.66;;;14.49;50.15
79461;BME280;68929;42.666;23.324;2023-04-01T03:45:47;93545.56;;;14.76;49.26
79461;BME280;68929;42.666;23.324;2023-04-01T03:48:14;93540.25;;;14.96;49.79
79461;BME280;68929;42.666;23.324;2023-04-01T03:50:40;93509.91;;;15.07;48.14
79461;BME280;68929;42.666;23.324;2023-04-01T03:53:06;93493.84;;;15.38;48.28
79461;BME280;68929;42.666;23.324;2023-04-01T03:55:31;93500.22;;;15.57;46.76
79461;BME280;68929;42.666;23.324;2023-04-01T03:57:57;93487.19;;;15.55;47.41
79461;BME280;68929;42.666;23.324;2023-04-01T04:00:22;93473.44;;;14.98;47.66
79461;BME280;68929;42.666;23.324;2023-04-01T04:02:48;93445.28;;;14.87;48.28
79461;BME280;68929;42.666;23.324;2023-04-01T04:05:13;93474.22;;;15.18;47.92
79461;BME280;68929;42.666;23.324;2023-04-01T04:07:39;93472.63;;;15.17;47.76
79461;BME280;68929;42.666;23.324;2023-04-01T04:10:05;93450.28;;;15.13;47.51
79461;BME280;68929;42.666;23.324;2023-04-01T04:12:31;93440.94;;;15.21;47.02
79461;BME280;68929;42.666;23.324;2023-04-01T04:14:57;93448.63;;;15.33;47.95
79461;BME280;68929;42.666;23.324;2023-04-01T04:17:22;93435.34;;;15.17;47.78
79461;BME280;68929;42.666;23.324;2023-04-01T04:19:47;93447.00;;;15.52;46.50
79461;BME280;68929;42.666;23.324;2023-04-01T04:22:13;93433.47;;;15.23;47.32
79461;BME280;68929;42.666;23.324;2023-04-01T04:24:38;93429.47;;;15.31;46.89
79461;BME280;68929;42.666;23.324;2023-04-01T04:27:04;93402.91;;;15.10;46.92
79461;BME280;68929;42.666;23.324;2023-04-01T04:29:29;93421.72;;;15.29;46.43
79461;BME280;68929;42.666;23.324;2023-04-01T04:31:55;93422.28;;;15.26;46.23
79461;BME280;68929;42.666;23.324;2023-04-01T04:34:20;93423.72;;;14.93;46.51
79461;BME280;68929;42.666;23.324;2023-04-01T04:36:48;93413.06;;;14.83;47.04
79461;BME280;68929;42.666;23.324;2023-04-01T04:39:14;93392.88;;;14.27;48.37
79461;BME280;68929;42.666;23.324;2023-04-01T04:41:40;93403.53;;;14.72;47.41
79461;BME280;68929;42.666;23.324;2023-04-01T04:44:05;93397.13;;;14.93;47.19
79461;BME280;68929;42.666;23.324;2023-04-01T04:46:31;93408.34;;;14.40;47.66
79461;BME280;68929;42.666;23.324;2023-04-01T04:48:56;93396.63;;;14.46;47.86
79461;BME280;68929;42.666;23.324;2023-04-01T04:51:22;93398.72;;;14.84;47.25
79461;BME280;68929;42.666;23.324;2023-04-01T04:53:48;93382.16;;;15.07;46.68
79461;BME280;68929;42.666;23.324;2023-04-01T04:56:20;93377.94;;;14.96;46.11
79461;BME280;68929;42.666;23.324;2023-04-01T04:58:47;93388.13;;;14.64;47.14
79461;BME280;68929;42.666;23.324;2023-04-01T05:01:14;93395.50;;;13.82;49.11
79461;BME280;68929;42.666;23.324;2023-04-01T05:03:41;93389.69;;;14.25;48.50
79461;BME280;68929;42.666;23.324;2023-04-01T05:06:08;93382.81;;;14.49;48.45
79461;BME280;68929;42.666;23.324;2023-04-01T05:08:34;93365.78;;;14.50;48.03
79461;BME280;68929;42.666;23.324;2023-04-01T05:11:01;93381.47;;;14.06;47.52
79461;BME280;68929;42.666;23.324;2023-04-01T05:13:27;93376.94;;;13.77;49.88
79461;BME280;68929;42.666;23.324;2023-04-01T05:15:53;93376.56;;;13.33;50.61
79461;BME280;68929;42.666;23.324;2023-04-01T05:18:18;93361.88;;;13.10;51.55
79461;BME280;68929;42.666;23.324;2023-04-01T05:20:51;93353.00;;;13.72;49.55
79461;BME280;68929;42.666;23.324;2023-04-01T05:23:17;93340.81;;;13.91;49.17
79461;BME280;68929;42.666;23.324;2023-04-01T05:25:43;93334.84;;;13.23;50.83
79461;BME280;68929;42.666;23.324;2023-04-01T05:28:10;93331.78;;;13.82;50.39
79461;BME280;68929;42.666;23.324;2023-04-01T05:30:35;93337.09;;;14.07;49.60
79461;BME280;68929;42.666;23.324;2023-04-01T05:33:01;93361.47;;;13.48;50.84
79461;BME280;68929;42.666;23.324;2023-04-01T05:35:26;93357.78;;;13.64;51.39
79461;BME280;68929;42.666;23.324;2023-04-01T05:37:51;93353.16;;;13.25;50.37
79461;BME280;68929;42.666;23.324;2023-04-01T05:40:17;93351.84;;;13.27;51.71
79461;BME280;68929;42.666;23.324;2023-04-01T05:42:43;93356.75;;;14.01;49.44
79461;BME280;68929;42.666;23.324;2023-04-01T05:45:11;93347.72;;;14.22;46.40
79461;BME280;68929;42.666;23.324;2023-04-01T05:47:36;93334.44;;;14.47;47.97
79461;BME280;68929;42.666;23.324;2023-04-01T05:50:02;93356.72;;;14.71;47.80
79461;BME280;68929;42.666;23.324;2023-04-01T05:52:27;93342.38;;;14.52;47.04
79461;BME280;68929;42.666;23.324;2023-04-01T05:54:53;93341.88;;;14.05;45.63
79461;BME280;68929;42.666;23.324;2023-04-01T05:57:18;93330.72;;;14.08;46.43
79461;BME280;68929;42.666;23.324;2023-04-01T05:59:45;93327.47;;;14.56;46.51
79461;BME280;68929;42.666;23.324;2023-04-01T06:02:11;93323.16;;;14.85;44.78
79461;BME280;68929;42.666;23.324;2023-04-01T06:04:43;93308.31;;;14.69;45.35
79461;BME280;68929;42.666;23.324;2023-04-01T06:07:19;93328.34;;;15.20;43.83
79461;BME280;68929;42.666;23.324;2023-04-01T06:09:45;93331.38;;;15.58;45.27
79461;BME280;68929;42.666;23.324;2023-04-01T06:23:30;93322.25;;;16.36;41.15
79461;BME280;68929;42.666;23.324;2023-04-01T06:26:11;93333.25;;;16.58;42.08
79461;BME280;68929;42.666;23.324;2023-04-01T06:37:03;93300.47;;;16.82;40.44
79461;BME280;68929;42.666;23.324;2023-04-01T06:53:49;93265.44;;;16.12;41.81
79461;BME280;68929;42.666;23.324;2023-04-01T06:56:21;93288.91;;;16.10;42.95
79461;BME280;68929;42.666;23.324;2023-04-01T07:01:25;93276.16;;;16.02;44.11
79461;BME280;68929;42.666;23.324;2023-04-01T07:04:03;93278.53;;;16.37;42.51
79461;BME280;68929;42.666;23.324;2023-04-01T07:09:16;93296.19;;;16.28;43.87
79461;BME280;68929;42.666;23.324;2023-04-01T07:11:44;93299.69;;;16.57;43.90
79461;BME280;68929;42.666;23.324;2023-04-01T07:14:13;93296.69;;;16.64;43.22
79461;BME280;68929;42.666;23.324;2023-04-01T07:16:50;93257.50;;;16.83;42.89
79461;BME280;68929;42.666;23.324;2023-04-01T07:19:39;93271.75;;;16.73;42.85
79461;BME280;68929;42.666;23.324;2023-04-01T07:22:26;93257.63;;;16.44;43.54
79461;BME280;68929;42.666;23.324;2023-04-01T07:24:55;93264.19;;;16.28;43.43
79461;BME280;68929;42.666;23.324;2023-04-01T07:27:23;93281.94;;;16.14;44.14
79461;BME280;68929;42.666;23.324;2023-04-01T07:29:48;93292.41;;;16.06;45.52
79461;BME280;68929;42.666;23.324;2023-04-01T07:40:32;93267.00;;;16.13;45.37
79461;BME280;68929;42.666;23.324;2023-04-01T08:01:44;93275.88;;;15.75;47.05
79461;BME280;68929;42.666;23.324;2023-04-01T08:04:28;93267.31;;;15.73;46.27
79461;BME280;68929;42.666;23.324;2023-04-01T08:07:07;93256.47;;;15.98;46.22
79461;BME280;68929;42.666;23.324;2023-04-01T08:17:59;93250.06;;;15.99;46.28
79461;BME280;68929;42.666;23.324;2023-04-01T08:20:46;93239.31;;;16.09;45.47
79461;BME280;68929;42.666;23.324;2023-04-01T08:23:20;93236.13;;;16.07;45.55
79461;BME280;68929;42.666;23.324;2023-04-01T08:28:44;93222.81;;;16.07;45.45
79461;BME280;68929;42.666;23.324;2023-04-01T08:33:54;93184.66;;;16.12;45.32
79461;BME280;68929;42.666;23.324;2023-04-01T08:36:29;93152.22;;;16.28;44.79
79461;BME280;68929;42.666;23.324;2023-04-01T08:39:13;93187.25;;;16.88;43.61
79461;BME280;68929;42.666;23.324;2023-04-01T08:55:43;93147.59;;;17.00;43.18
79461;BME280;68929;42.666;23.324;2023-04-01T09:23:48;93143.31;;;18.00;37.80
79461;BME280;68929;42.666;23.324;2023-04-01T09:28:56;93130.53;;;18.11;38.62
79461;BME280;68929;42.666;23.324;2023-04-01T09:31:55;93123.94;;;18.35;38.85
79461;BME280;68929;42.666;23.324;2023-04-01T09:34:57;93120.47;;;18.49;37.22
79461;BME280;68929;42.666;23.324;2023-04-01T09:55:28;93084.47;;;19.04;36.99
79461;BME280;68929;42.666;23.324;2023-04-01T10:44:48;93012.28;;;18.99;37.69
79461;BME280;68929;42.666;23.324;2023-04-01T10:50:11;93003.53;;;18.63;38.61
79461;BME280;68929;42.666;23.324;2023-04-01T10:58:12;92997.78;;;18.42;35.22
79461;BME280;68929;42.666;23.324;2023-04-01T11:00:53;92989.88;;;18.37;36.84
79461;BME280;68929;42.666;23.324;2023-04-01T11:23:39;93002.38;;;18.99;36.51
79461;BME280;68929;42.666;23.324;2023-04-01T11:32:02;93055.22;;;18.72;40.07
79461;BME280;68929;42.666;23.324;2023-04-01T11:34:56;93060.13;;;17.42;40.88
79461;BME280;68929;42.666;23.324;2023-04-01T11:42:55;93118.06;;;15.83;46.94
79461;BME280;68929;42.666;23.324;2023-04-01T11:58:57;93249.81;;;11.79;73.77
79461;BME280;68929;42.666;23.324;2023-04-01T12:01:33;93232.31;;;11.73;73.74
79461;BME280;68929;42.666;23.324;2023-04-01T12:09:36;93224.72;;;11.50;73.94
79461;BME280;68929;42.666;23.324;2023-04-01T12:14:54;93241.75;;;11.64;72.92
79461;BME280;68929;42.666;23.324;2023-04-01T12:20:42;93231.97;;;12.58;71.17
79461;BME280;68929;42.666;23.324;2023-04-01T12:28:59;93252.03;;;13.06;67.91
79461;BME280;68929;42.666;23.324;2023-04-01T12:31:59;93243.94;;;12.66;69.93
79461;BME280;68929;42.666;23.324;2023-04-01T12:45:32;93260.41;;;12.78;71.49
79461;BME280;68929;42.666;23.324;2023-04-01T12:48:21;93246.94;;;12.95;70.06
79461;BME280;68929;42.666;23.324;2023-04-01T12:56:48;93217.28;;;13.13;68.40
79461;BME280;68929;42.666;23.324;2023-04-01T13:02:11;93225.03;;;13.85;66.99
79461;BME280;68929;42.666;23.324;2023-04-01T13:07:35;93194.38;;;14.22;63.06
79461;BME280;68929;42.666;23.324;2023-04-01T13:15:47;93162.66;;;16.01;64.93
79461;BME280;68929;42.666;23.324;2023-04-01T13:28:59;93150.59;;;23.63;42.70
79461;BME280;68929;42.666;23.324;2023-04-01T13:37:52;93131.59;;;19.85;46.85
79461;BME280;68929;42.666;23.324;2023-04-01T13:40:36;93138.41;;;20.52;45.87
79461;BME280;68929;42.666;23.324;2023-04-01T13:43:19;93103.47;;;19.16;47.60
79461;BME280;68929;42.666;23.324;2023-04-01T13:46:41;93098.75;;;18.64;49.70
79461;BME280;68929;42.666;23.324;2023-04-01T13:49:52;93105.16;;;20.01;47.68
79461;BME280;68929;42.666;23.324;2023-04-01T14:11:26;93070.19;;;26.45;32.21
79461;BME280;68929;42.666;23.324;2023-04-01T14:22:39;93066.22;;;20.12;38.82
79461;BME280;68929;42.666;23.324;2023-04-01T14:25:14;93052.53;;;19.52;40.22
79461;BME280;68929;42.666;23.324;2023-04-01T14:33:47;93044.00;;;17.93;41.55
79461;BME280;68929;42.666;23.324;2023-04-01T14:44:54;93052.81;;;18.48;50.26
79461;BME280;68929;42.666;23.324;2023-04-01T14:47:32;93044.25;;;18.60;46.65
79461;BME280;68929;42.666;23.324;2023-04-01T14:52:42;93028.03;;;18.15;49.10
79461;BME280;68929;42.666;23.324;2023-04-01T14:55:32;93045.88;;;17.79;52.57
79461;BME280;68929;42.666;23.324;2023-04-01T15:01:00;93041.63;;;17.78;50.67
79461;BME280;68929;42.666;23.324;2023-04-01T15:11:32;93048.56;;;17.33;50.16
79461;BME280;68929;42.666;23.324;2023-04-01T15:16:54;93059.97;;;17.52;50.51
79461;BME280;68929;42.666;23.324;2023-04-01T15:24:41;93067.03;;;17.30;51.62
79461;BME280;68929;42.666;23.324;2023-04-01T15:29:56;93074.13;;;17.21;52.02
79461;BME280;68929;42.666;23.324;2023-04-01T15:32:39;93072.00;;;16.86;53.91
79461;BME280;68929;42.666;23.324;2023-04-01T15:40:57;93075.97;;;16.88;52.60
79461;BME280;68929;42.666;23.324;2023-04-01T15:43:57;93082.16;;;16.84;51.79
79461;BME280;68929;42.666;23.324;2023-04-01T15:51:52;93249.66;;;14.20;54.47
79461;BME280;68929;42.666;23.324;2023-04-01T15:57:35;93301.75;;;11.85;60.47
79461;BME280;68929;42.666;23.324;2023-04-01T16:00:47;93306.00;;;11.55;64.01
79461;BME280;68929;42.666;23.324;2023-04-01T16:03:46;93326.13;;;9.38;71.19
79461;BME280;68929;42.666;23.324;2023-04-01T16:22:35;93360.06;;;9.06;78.29
79461;BME280;68929;42.666;23.324;2023-04-01T16:25:36;93354.34;;;9.54;76.15
79461;BME280;68929;42.666;23.324;2023-04-01T16:28:15;93366.56;;;9.60;76.32
79461;BME280;68929;42.666;23.324;2023-04-01T16:30:56;93357.00;;;8.98;78.09
79461;BME280;68929;42.666;23.324;2023-04-01T16:39:14;93378.81;;;9.99;73.75
79461;BME280;68929;42.666;23.324;2023-04-01T16:41:49;93378.66;;;9.89;72.58
79461;BME280;68929;42.666;23.324;2023-04-01T16:44:20;93365.00;;;9.59;73.80
79461;BME280;68929;42.666;23.324;2023-04-01T16:47:08;93372.81;;;10.04;71.99
79461;BME280;68929;42.666;23.324;2023-04-01T16:50:11;93387.22;;;9.63;71.53
79461;BME280;68929;42.666;23.324;2023-04-01T16:52:44;93380.94;;;10.30;70.86
79461;BME280;68929;42.666;23.324;2023-04-01T16:55:18;93345.72;;;9.75;72.16
79461;BME280;68929;42.666;23.324;2023-04-01T16:57:56;93389.22;;;9.89;71.77
79461;BME280;68929;42.666;23.324;2023-04-01T17:00:28;93370.13;;;9.82;71.02
79461;BME280;68929;42.666;23.324;2023-04-01T17:06:03;93381.22;;;9.51;71.27
79461;BME280;68929;42.666;23.324;2023-04-01T17:11:12;93372.59;;;9.27;70.97
79461;BME280;68929;42.666;23.324;2023-04-01T17:14:01;93378.09;;;9.54;70.62
79461;BME280;68929;42.666;23.324;2023-04-01T17:23:00;93367.47;;;9.21;70.26
79461;BME280;68929;42.666;23.324;2023-04-01T17:28:33;93385.03;;;8.75;71.54
79461;BME280;68929;42.666;23.324;2023-04-01T17:31:18;93395.53;;;9.27;70.83
79461;BME280;68929;42.666;23.324;2023-04-01T17:39:27;93409.41;;;8.82;70.75
79461;BME280;68929;42.666;23.324;2023-04-01T17:42:06;93403.44;;;8.99;71.13
79461;BME280;68929;42.666;23.324;2023-04-01T17:44:48;93393.97;;;9.14;70.45
79461;BME280;68929;42.666;23.324;2023-04-01T17:50:28;93408.84;;;9.20;70.84
79461;BME280;68929;42.666;23.324;2023-04-01T17:55:50;93433.78;;;9.86;69.15
79461;BME280;68929;42.666;23.324;2023-04-01T17:58:32;93442.97;;;9.83;68.52
79461;BME280;68929;42.666;23.324;2023-04-01T18:06:33;93476.69;;;10.09;66.16
79461;BME280;68929;42.666;23.324;2023-04-01T18:17:24;93494.06;;;9.77;69.44
79461;BME280;68929;42.666;23.324;2023-04-01T18:22:23;93487.84;;;9.83;67.99
79461;BME280;68929;42.666;23.324;2023-04-01T18:27:38;93500.81;;;10.01;66.29
79461;BME280;68929;42.666;23.324;2023-04-01T18:32:50;93504.13;;;10.36;67.12
79461;BME280;68929;42.666;23.324;2023-04-01T18:35:28;93481.31;;;10.85;64.36
79461;BME280;68929;42.666;23.324;2023-04-01T18:38:13;93478.97;;;10.34;67.08
79461;BME280;68929;42.666;23.324;2023-04-01T18:41:12;93478.47;;;10.20;67.74
79461;BME280;68929;42.666;23.324;2023-04-01T18:44:19;93495.94;;;10.21;67.55
79461;BME280;68929;42.666;23.324;2023-04-01T18:50:05;93469.25;;;10.06;65.41
79461;BME280;68929;42.666;23.324;2023-04-01T18:52:42;93468.88;;;10.48;63.64
79461;BME280;68929;42.666;23.324;2023-04-01T18:55:46;93496.03;;;9.98;66.48
79461;BME280;68929;42.666;23.324;2023-04-01T19:03:52;93479.13;;;9.54;64.29
79461;BME280;68929;42.666;23.324;2023-04-01T19:08:53;93520.91;;;10.80;65.73
79461;BME280;68929;42.666;23.324;2023-04-01T19:11:24;93529.47;;;10.54;65.47
79461;BME280;68929;42.666;23.324;2023-04-01T19:14:16;93529.31;;;10.44;63.80
79461;BME280;68929;42.666;23.324;2023-04-01T19:19:37;93531.13;;;10.27;65.18
79461;BME280;68929;42.666;23.324;2023-04-01T19:22:26;93543.19;;;10.34;65.23
79461;BME280;68929;42.666;23.324;2023-04-01T19:30:57;93523.13;;;9.26;66.25
79461;BME280;68929;42.666;23.324;2023-04-01T19:45:07;93569.44;;;9.73;64.54
79461;BME280;68929;42.666;23.324;2023-04-01T19:53:35;93554.03;;;10.21;63.09
79461;BME280;68929;42.666;23.324;2023-04-01T19:56:23;93588.00;;;9.90;63.72
79461;BME280;68929;42.666;23.324;2023-04-01T19:58:54;93584.78;;;9.88;65.28
79461;BME280;68929;42.666;23.324;2023-04-01T20:04:33;93587.41;;;10.89;60.55
79461;BME280;68929;42.666;23.324;2023-04-01T20:07:11;93575.97;;;10.22;59.66
79461;BME280;68929;42.666;23.324;2023-04-01T20:09:53;93562.50;;;10.23;62.89
79461;BME280;68929;42.666;23.324;2023-04-01T20:15:37;93577.81;;;10.38;58.49
79461;BME280;68929;42.666;23.324;2023-04-01T20:18:26;93569.50;;;10.29;58.71
79461;BME280;68929;42.666;23.324;2023-04-01T20:21:06;93563.19;;;10.30;60.85
79461;BME280;68929;42.666;23.324;2023-04-01T20:26:11;93577.13;;;11.09;56.49
79461;BME280;68929;42.666;23.324;2023-04-01T20:31:43;93588.50;;;11.26;58.42
79461;BME280;68929;42.666;23.324;2023-04-01T20:37:28;93589.66;;;11.35;59.84
79461;BME280;68929;42.666;23.324;2023-04-01T20:48:12;93596.34;;;11.21;59.35
79461;BME280;68929;42.666;23.324;2023-04-01T20:51:04;93594.22;;;10.23;58.89
79461;BME280;68929;42.666;23.324;2023-04-01T20:56:33;93580.16;;;10.34;59.53
79461;BME280;68929;42.666;23.324;2023-04-01T20:59:28;93583.56;;;10.80;60.37
79461;BME280;68929;42.666;23.324;2023-04-01T21:02:26;93586.59;;;10.88;58.45
79461;BME280;68929;42.666;23.324;2023-04-01T21:07:39;93594.22;;;10.23;58.91
79461;BME280;68929;42.666;23.324;2023-04-01T21:13:16;93591.53;;;10.52;59.61
79461;BME280;68929;42.666;23.324;2023-04-01T21:15:57;93601.56;;;10.21;58.97
79461;BME280;68929;42.666;23.324;2023-04-01T21:24:42;93602.75;;;10.02;58.96
79461;BME280;68929;42.666;23.324;2023-04-01T21:27:20;93596.88;;;10.12;60.13
79461;BME280;68929;42.666;23.324;2023-04-01T21:35:37;93612.84;;;10.62;55.99
79461;BME280;68929;42.666;23.324;2023-04-01T21:40:52;93608.50;;;10.56;58.22
79461;BME280;68929;42.666;23.324;2023-04-01T21:52:16;93603.88;;;11.29;56.82
79461;BME280;68929;42.666;23.324;2023-04-01T22:05:37;93608.59;;;11.10;59.51
79461;BME280;68929;42.666;23.324;2023-04-01T22:08:26;93609.94;;;11.46;57.49
79461;BME280;68929;42.666;23.324;2023-04-01T22:11:04;93614.53;;;11.72;53.63
79461;BME280;68929;42.666;23.324;2023-04-01T22:16:47;93605.88;;;11.39;57.24
79461;BME280;68929;42.666;23.324;2023-04-01T22:19:20;93586.81;;;11.58;57.50
79461;BME280;68929;42.666;23.324;2023-04-01T22:27:07;93595.38;;;11.27;53.94
79461;BME280;68929;42.666;23.324;2023-04-01T22:29:49;93603.19;;;11.55;56.40
79461;BME280;68929;42.666;23.324;2023-04-01T22:32:23;93580.59;;;11.31;56.84
79461;BME280;68929;42.666;23.324;2023-04-01T22:34:59;93593.13;;;11.19;57.69
79461;BME280;68929;42.666;23.324;2023-04-01T22:40:10;93601.44;;;11.44;55.93
79461;BME280;68929;42.666;23.324;2023-04-01T22:42:45;93607.38;;;11.51;50.67
79461;BME280;68929;42.666;23.324;2023-04-01T22:48:20;93603.72;;;11.02;55.58
79461;BME280;68929;42.666;23.324;2023-04-01T22:56:05;93630.59;;;11.66;53.27
79461;BME280;68929;42.666;23.324;2023-04-01T22:58:48;93621.03;;;10.77;54.80
79461;BME280;68929;42.666;23.324;2023-04-01T23:01:20;93615.25;;;10.63;52.87
79461;BME280;68929;42.666;23.324;2023-04-01T23:03:49;93623.72;;;10.49;58.14
79461;BME280;68929;42.666;23.324;2023-04-01T23:06:20;93634.59;;;10.80;53.69
79461;BME280;68929;42.666;23.324;2023-04-01T23:09:08;93641.06;;;11.06;55.76
79461;BME280;68929;42.666;23.324;2023-04-01T23:11:40;93616.50;;;10.44;56.63
79461;BME280;68929;42.666;23.324;2023-04-01T23:22:34;93625.28;;;10.78;58.19
79461;BME280;68929;42.666;23.324;2023-04-01T23:38:19;93623.06;;;11.41;52.42
79461;BME280;68929;42.666;23.324;2023-04-01T23:40:49;93617.94;;;11.68;53.71
79461;BME280;68929;42.666;23.324;2023-04-01T23:43:26;93640.38;;;12.03;53.83